createdAt,value
2022-12-12T00:00:45.575Z,1.44
2022-12-12T00:03:13.356Z,1.42
2022-12-12T00:05:41.292Z,1.42
2022-12-12T00:08:09.083Z,1.41
2022-12-12T00:10:37.186Z,1.41
2022-12-12T00:13:06.269Z,1.42
2022-12-12T00:15:34.005Z,1.41
2022-12-12T00:18:01.815Z,1.39
2022-12-12T00:20:29.584Z,1.41
2022-12-12T00:22:57.356Z,1.43
2022-12-12T00:25:25.032Z,1.42
2022-12-12T00:27:52.759Z,1.42
2022-12-12T00:30:21.895Z,1.43
2022-12-12T00:32:49.565Z,1.39
2022-12-12T00:35:17.536Z,1.42
2022-12-12T00:37:45.197Z,1.38
2022-12-12T00:40:14.329Z,1.39
2022-12-12T00:42:42.056Z,1.41
2022-12-12T00:45:10.760Z,1.38
2022-12-12T00:47:40.130Z,1.41
2022-12-12T00:50:09.218Z,1.41
2022-12-12T00:52:36.954Z,1.41
2022-12-12T00:55:05.443Z,1.41
2022-12-12T00:57:33.143Z,1.41
2022-12-12T01:00:01.709Z,1.41
2022-12-12T01:02:29.450Z,1.39
2022-12-12T01:04:58.539Z,1.41
2022-12-12T01:07:26.503Z,1.41
2022-12-12T01:09:54.209Z,1.39
2022-12-12T01:12:21.928Z,1.39
2022-12-12T01:14:49.885Z,1.38
2022-12-12T01:17:17.749Z,1.38
2022-12-12T01:19:45.540Z,1.38
2022-12-12T01:22:14.620Z,1.39
2022-12-12T01:24:42.275Z,1.39
2022-12-12T01:27:10.016Z,1.39
2022-12-12T01:29:37.844Z,1.38
2022-12-12T01:32:06.017Z,1.38
2022-12-12T01:34:33.628Z,1.38
2022-12-12T01:37:01.300Z,1.38
2022-12-12T01:39:30.303Z,1.36
2022-12-12T01:41:58.033Z,1.37
2022-12-12T01:44:40.969Z,1.39
2022-12-12T01:47:08.834Z,1.37
2022-12-12T01:49:37.002Z,1.37
2022-12-12T01:52:07.555Z,1.39
2022-12-12T01:54:40.483Z,1.39
2022-12-12T01:57:10.522Z,1.38
2022-12-12T01:59:38.971Z,1.35
2022-12-12T02:02:07.310Z,1.39
2022-12-12T02:04:35.381Z,1.39
2022-12-12T02:07:03.239Z,1.39
2022-12-12T02:09:31.184Z,1.39
2022-12-12T02:12:00.490Z,1.38
2022-12-12T02:14:30.752Z,1.38
2022-12-12T02:17:44.680Z,1.38
2022-12-12T02:20:42.561Z,1.35
2022-12-12T02:23:26.390Z,1.33
2022-12-12T02:26:06.992Z,1.35
2022-12-12T02:31:33.447Z,1.35
2022-12-12T02:34:04.845Z,1.34
2022-12-12T02:36:37.821Z,1.35
2022-12-12T02:39:09.704Z,1.35
2022-12-12T02:41:40.275Z,1.34
2022-12-12T02:44:14.668Z,1.36
2022-12-12T02:46:49.077Z,1.37
2022-12-12T02:49:19.855Z,1.35
2022-12-12T02:51:48.852Z,1.34
2022-12-12T02:54:18.477Z,1.29
2022-12-12T02:56:52.927Z,1.29
2022-12-12T02:59:25.692Z,1.30
2022-12-12T03:02:24.807Z,1.29
2022-12-12T03:05:28.108Z,1.29
2022-12-12T03:08:03.921Z,1.28
2022-12-12T03:10:42.150Z,1.26
2022-12-12T03:13:13.383Z,1.30
2022-12-12T03:15:45.856Z,1.31
2022-12-12T03:18:23.309Z,1.30
2022-12-12T03:20:53.609Z,1.31
2022-12-12T03:23:26.292Z,1.32
2022-12-12T03:26:01.164Z,1.31
2022-12-12T03:28:32.560Z,1.34
2022-12-12T03:31:04.186Z,1.34
2022-12-12T03:33:37.274Z,1.34
2022-12-12T03:36:09.128Z,1.34
2022-12-12T03:38:39.446Z,1.33
2022-12-12T03:41:10.611Z,1.33
2022-12-12T03:43:41.567Z,1.32
2022-12-12T03:46:13.660Z,1.33
2022-12-12T03:48:45.215Z,1.32
2022-12-12T03:51:15.777Z,1.32
2022-12-12T03:53:46.006Z,1.32
2022-12-12T03:56:17.258Z,1.31
2022-12-12T03:58:48.635Z,1.34
2022-12-12T04:01:17.328Z,1.32
2022-12-12T04:03:50.951Z,1.33
2022-12-12T04:06:28.512Z,1.33
2022-12-12T04:09:16.572Z,1.30
2022-12-12T04:12:13.209Z,1.30
2022-12-12T04:14:56.377Z,1.30
2022-12-12T04:17:30.580Z,1.28
2022-12-12T04:20:20.629Z,1.29
2022-12-12T04:23:11.153Z,1.27
2022-12-12T04:26:01.646Z,1.26
2022-12-12T04:28:29.945Z,1.25
2022-12-12T04:31:01.659Z,1.27
2022-12-12T04:33:30.776Z,1.26
2022-12-12T04:36:01.435Z,1.27
2022-12-12T04:38:29.222Z,1.26
2022-12-12T04:40:58.820Z,1.26
2022-12-12T04:43:28.869Z,1.26
2022-12-12T04:45:58.632Z,1.26
2022-12-12T04:48:29.392Z,1.23
2022-12-12T04:51:00.136Z,1.23
2022-12-12T04:53:30.933Z,1.26
2022-12-12T04:56:00.848Z,1.27
2022-12-12T04:58:28.930Z,1.26
2022-12-12T05:01:01.225Z,1.26
2022-12-12T05:03:33.611Z,1.28
2022-12-12T05:06:04.516Z,1.25
2022-12-12T05:08:33.760Z,1.30
2022-12-12T05:11:03.647Z,1.29
2022-12-12T05:13:32.945Z,1.29
2022-12-12T05:16:01.919Z,1.30
2022-12-12T05:18:30.596Z,1.29
2022-12-12T05:20:58.373Z,1.31
2022-12-12T05:23:33.003Z,1.32
2022-12-12T05:26:07.569Z,1.32
2022-12-12T05:28:35.813Z,1.30
2022-12-12T05:31:03.604Z,1.31
2022-12-12T05:33:31.391Z,1.32
2022-12-12T05:35:59.067Z,1.30
2022-12-12T05:38:28.124Z,1.31
2022-12-12T05:40:55.859Z,1.30
2022-12-12T05:43:23.634Z,1.30
2022-12-12T05:45:51.650Z,1.30
2022-12-12T05:48:24.094Z,1.29
2022-12-12T05:50:52.350Z,1.30
2022-12-12T05:53:20.167Z,1.29
2022-12-12T05:55:50.226Z,1.29
2022-12-12T05:58:17.990Z,1.28
2022-12-12T06:00:46.231Z,1.28
2022-12-12T06:03:13.973Z,1.29
2022-12-12T06:05:41.754Z,1.29
2022-12-12T06:08:09.920Z,1.29
2022-12-12T06:10:37.689Z,1.29
2022-12-12T06:13:06.750Z,1.29
2022-12-12T06:15:34.588Z,1.30
2022-12-12T06:18:02.363Z,1.29
2022-12-12T06:20:30.567Z,1.28
2022-12-12T06:22:58.302Z,1.29
2022-12-12T06:25:26.057Z,1.29
2022-12-12T06:27:53.860Z,1.23
2022-12-12T06:30:22.971Z,1.29
2022-12-12T06:32:50.679Z,1.27
2022-12-12T06:35:18.485Z,1.28
2022-12-12T06:37:48.331Z,1.28
2022-12-12T06:40:17.084Z,1.28
2022-12-12T06:42:48.207Z,1.27
2022-12-12T06:45:16.767Z,1.26
2022-12-12T06:47:45.920Z,1.26
2022-12-12T06:50:14.416Z,1.24
2022-12-12T06:52:44.498Z,1.26
2022-12-12T06:55:12.372Z,1.26
2022-12-12T06:57:40.195Z,1.23
2022-12-12T07:00:10.031Z,1.25
2022-12-12T07:02:37.764Z,1.26
2022-12-12T07:05:07.965Z,1.28
2022-12-12T07:07:35.651Z,1.26
2022-12-12T07:10:03.325Z,1.27
2022-12-12T07:12:30.994Z,1.26
2022-12-12T07:14:58.751Z,1.26
2022-12-12T07:17:26.454Z,1.27
2022-12-12T07:19:54.159Z,1.25
2022-12-12T07:22:23.338Z,1.26
2022-12-12T07:24:52.523Z,1.27
2022-12-12T07:27:21.949Z,1.26
2022-12-12T07:29:49.817Z,1.25
2022-12-12T07:32:17.499Z,1.24
2022-12-12T07:34:45.309Z,1.13
2022-12-12T07:37:13.002Z,1.24
2022-12-12T07:39:42.079Z,1.25
2022-12-12T07:42:09.752Z,1.23
2022-12-12T07:44:37.586Z,1.25
2022-12-12T07:47:06.393Z,1.24
2022-12-12T07:49:34.067Z,1.25
2022-12-12T07:52:01.795Z,1.24
2022-12-12T07:54:29.455Z,1.26
2022-12-12T07:57:00.180Z,1.25
2022-12-12T07:59:27.891Z,1.25
2022-12-12T08:01:55.603Z,1.25
2022-12-12T08:04:23.716Z,1.27
2022-12-12T08:06:59.678Z,1.28
2022-12-12T08:09:29.657Z,1.28
2022-12-12T08:11:59.383Z,1.30
2022-12-12T08:14:27.422Z,1.28
2022-12-12T08:16:55.216Z,1.29
2022-12-12T08:19:23.095Z,1.31
2022-12-12T08:21:50.775Z,1.31
2022-12-12T08:24:18.700Z,1.24
2022-12-12T08:26:46.844Z,1.31
2022-12-12T08:29:15.858Z,1.33
2022-12-12T08:31:43.634Z,1.32
2022-12-12T08:34:11.569Z,1.33
2022-12-12T08:36:39.580Z,1.34
2022-12-12T08:39:09.259Z,1.35
2022-12-12T08:41:38.318Z,1.35
2022-12-12T08:44:06.369Z,1.34
2022-12-12T08:46:36.031Z,1.37
2022-12-12T08:49:03.915Z,1.38
2022-12-12T08:51:31.830Z,1.39
2022-12-12T08:53:59.616Z,1.40
2022-12-12T08:56:27.362Z,1.41
2022-12-12T08:58:55.093Z,1.41
2022-12-12T09:01:24.119Z,1.43
2022-12-12T09:03:54.719Z,1.44
2022-12-12T09:06:22.955Z,1.43
2022-12-12T09:08:50.909Z,1.46
2022-12-12T09:11:18.830Z,1.46
2022-12-12T09:13:46.668Z,1.47
2022-12-12T09:16:14.841Z,1.49
2022-12-12T09:18:48.576Z,1.50
2022-12-12T09:21:18.431Z,1.52
2022-12-12T09:23:46.398Z,1.50
2022-12-12T09:26:14.040Z,1.56
2022-12-12T09:28:42.502Z,1.58
2022-12-12T09:31:13.395Z,1.60
2022-12-12T09:33:42.879Z,1.60
2022-12-12T09:36:11.917Z,1.63
2022-12-12T09:38:41.237Z,1.66
2022-12-12T09:41:13.464Z,1.67
2022-12-12T09:43:47.672Z,1.70
2022-12-12T09:46:27.494Z,1.78
2022-12-12T09:48:58.341Z,1.82
2022-12-12T09:51:26.198Z,1.85
2022-12-12T09:53:55.449Z,1.88
2022-12-12T09:56:26.488Z,1.91
2022-12-12T09:58:58.526Z,1.91
2022-12-12T10:01:30.479Z,1.90
2022-12-12T10:04:06.475Z,1.90
2022-12-12T10:06:39.790Z,1.89
2022-12-12T10:09:26.948Z,1.91
2022-12-12T10:11:55.417Z,1.89
2022-12-12T10:14:32.123Z,1.91
2022-12-12T10:17:01.383Z,1.89
2022-12-12T10:19:31.725Z,1.91
2022-12-12T10:22:03.394Z,1.92
2022-12-12T10:24:37.971Z,1.91
2022-12-12T10:27:11.234Z,1.90
2022-12-12T10:29:41.676Z,1.89
2022-12-12T10:32:15.962Z,1.91
2022-12-12T10:34:55.191Z,1.92
2022-12-12T10:37:35.862Z,1.90
2022-12-12T10:40:22.784Z,1.87
2022-12-12T10:42:55.196Z,1.94
2022-12-12T10:45:41.868Z,1.97
2022-12-12T10:48:09.615Z,1.96
2022-12-12T10:50:39.880Z,1.97
2022-12-12T10:53:10.287Z,1.97
2022-12-12T10:55:43.270Z,1.98
2022-12-12T10:58:11.036Z,2.00
2022-12-12T11:00:40.058Z,2.00
2022-12-12T11:03:24.939Z,2.07
2022-12-12T11:05:52.680Z,2.06
2022-12-12T11:08:23.472Z,2.04
2022-12-12T11:11:05.337Z,2.09
2022-12-12T11:13:33.842Z,2.10
2022-12-12T11:16:03.306Z,2.17
2022-12-12T11:18:31.144Z,2.20
2022-12-12T11:21:07.328Z,2.25
2022-12-12T11:23:36.826Z,2.25
2022-12-12T11:26:11.371Z,2.21
2022-12-12T11:28:40.006Z,2.20
2022-12-12T11:31:09.847Z,2.16
2022-12-12T11:33:42.400Z,2.17
2022-12-12T11:36:15.075Z,2.20
2022-12-12T11:38:48.486Z,2.22
2022-12-12T11:41:18.008Z,2.26
2022-12-12T11:43:59.812Z,2.29
2022-12-12T11:46:29.377Z,2.27
2022-12-12T11:49:02.603Z,2.27
2022-12-12T11:51:36.907Z,2.27
2022-12-12T11:54:07.119Z,2.21
2022-12-12T11:56:52.248Z,2.22
2022-12-12T11:59:34.060Z,2.17
2022-12-12T12:02:16.745Z,2.13
2022-12-12T12:04:53.402Z,2.12
2022-12-12T12:07:40.001Z,2.12
2022-12-12T12:10:11.467Z,2.14
2022-12-12T12:12:48.969Z,2.19
2022-12-12T12:15:31.988Z,2.20
2022-12-12T12:18:15.173Z,2.20
2022-12-12T12:21:02.788Z,2.21
2022-12-12T12:23:42.488Z,2.27
2022-12-12T12:26:15.843Z,2.32
2022-12-12T12:29:13.175Z,2.38
2022-12-12T12:31:46.867Z,2.43
2022-12-12T12:34:22.865Z,2.49
2022-12-12T12:37:00.732Z,2.51
2022-12-12T12:39:43.417Z,2.55
2022-12-12T12:42:21.295Z,2.58
2022-12-12T12:44:53.321Z,2.57
2022-12-12T12:47:28.692Z,2.57
2022-12-12T12:49:59.713Z,2.57
2022-12-12T12:52:31.890Z,2.56
2022-12-12T12:55:00.861Z,2.55
2022-12-12T12:57:31.687Z,2.57
2022-12-12T13:00:05.803Z,2.59
2022-12-12T13:02:42.381Z,2.62
2022-12-12T13:05:14.937Z,2.65
2022-12-12T13:07:47.527Z,2.60
2022-12-12T13:10:19.751Z,2.65
2022-12-12T13:12:51.815Z,2.66
2022-12-12T13:15:24.560Z,2.67
2022-12-12T13:17:57.578Z,2.69
2022-12-12T13:20:26.464Z,2.73
2022-12-12T13:23:07.284Z,2.77
2022-12-12T13:25:40.137Z,2.78
2022-12-12T13:28:13.720Z,2.83
2022-12-12T13:30:53.611Z,2.84
2022-12-12T13:33:36.547Z,2.84
2022-12-12T13:36:11.556Z,2.84
2022-12-12T13:38:39.987Z,2.82
2022-12-12T13:41:09.013Z,2.78
2022-12-12T13:43:47.936Z,2.76
2022-12-12T13:46:40.212Z,2.68
2022-12-12T13:49:28.904Z,2.63
2022-12-12T13:52:24.789Z,2.59
2022-12-12T13:54:54.750Z,2.39
2022-12-12T13:57:32.010Z,2.46
2022-12-12T14:00:24.080Z,2.43
2022-12-12T14:03:05.858Z,2.42
2022-12-12T14:05:36.343Z,2.40
2022-12-12T14:08:08.655Z,2.41
2022-12-12T14:10:38.329Z,2.38
2022-12-12T14:13:27.672Z,2.34
2022-12-12T14:16:05.310Z,2.33
2022-12-12T14:18:36.993Z,2.29
2022-12-12T14:21:06.392Z,2.25
2022-12-12T14:23:36.162Z,2.25
2022-12-12T14:26:53.901Z,2.20
2022-12-12T14:29:28.490Z,2.15
2022-12-12T14:32:14.840Z,2.13
2022-12-12T14:34:47.695Z,2.10
2022-12-12T14:37:29.835Z,2.08
2022-12-12T14:40:01.149Z,2.02
2022-12-12T14:43:20.976Z,2.05
2022-12-12T14:45:32.548Z,2.01
2022-12-12T14:48:21.036Z,1.99
2022-12-12T14:50:55.016Z,1.93
2022-12-12T14:53:24.516Z,1.90
2022-12-12T14:55:54.604Z,1.91
2022-12-12T14:58:26.380Z,1.89
2022-12-12T15:00:58.249Z,1.88
2022-12-12T15:03:28.680Z,1.85
2022-12-12T15:06:36.371Z,1.83
2022-12-12T15:09:24.601Z,1.79
2022-12-12T15:11:53.645Z,1.76
2022-12-12T15:14:23.422Z,1.74
2022-12-12T15:16:59.997Z,1.72
2022-12-12T15:19:30.259Z,1.58
2022-12-12T15:21:58.412Z,1.62
2022-12-12T15:24:28.722Z,1.58
2022-12-12T15:26:58.187Z,1.53
2022-12-12T15:29:28.148Z,1.49
2022-12-12T15:32:01.067Z,1.47
2022-12-12T15:34:37.525Z,1.44
2022-12-12T15:37:20.528Z,1.23
2022-12-12T15:39:58.701Z,1.28
2022-12-12T15:42:26.536Z,1.26
2022-12-12T15:44:54.579Z,1.25
2022-12-12T15:47:23.788Z,1.22
2022-12-12T15:49:53.329Z,1.22
2022-12-12T15:52:23.264Z,1.19
2022-12-12T15:54:52.905Z,1.18
2022-12-12T15:57:22.035Z,1.14
2022-12-12T15:59:55.539Z,1.14
2022-12-12T16:02:26.590Z,1.09
2022-12-12T16:04:56.119Z,1.08
2022-12-12T16:07:24.476Z,1.04
2022-12-12T16:10:00.394Z,1.06
2022-12-12T16:12:56.951Z,1.03
2022-12-12T16:15:31.541Z,1.01
2022-12-12T16:18:06.870Z,0.99
2022-12-12T16:20:35.311Z,0.95
2022-12-12T16:23:20.186Z,0.95
2022-12-12T16:25:47.914Z,0.89
2022-12-12T16:28:25.365Z,0.89
2022-12-12T16:30:58.741Z,0.88
2022-12-12T16:33:31.232Z,0.83
2022-12-12T16:36:01.520Z,0.85
2022-12-12T16:38:29.823Z,0.82
2022-12-12T16:40:59.833Z,0.75
2022-12-12T16:43:27.925Z,0.79
2022-12-12T16:45:57.518Z,0.78
2022-12-12T16:48:27.048Z,0.74
2022-12-12T16:50:58.334Z,0.73
2022-12-12T16:53:27.121Z,0.70
2022-12-12T16:55:55.126Z,0.70
2022-12-12T16:58:22.947Z,0.68
2022-12-12T17:00:52.792Z,0.65
2022-12-12T17:03:21.308Z,0.68
2022-12-12T17:05:49.536Z,0.68
2022-12-12T17:08:19.094Z,0.68
2022-12-12T17:10:48.880Z,0.64
2022-12-12T17:13:18.540Z,0.62
2022-12-12T17:15:46.477Z,0.58
2022-12-12T17:18:14.728Z,0.55
2022-12-12T17:20:43.017Z,0.52
2022-12-12T17:23:29.925Z,0.52
2022-12-12T17:26:04.099Z,0.47
2022-12-12T17:28:33.250Z,0.45
2022-12-12T17:31:01.069Z,0.44
2022-12-12T17:33:29.004Z,0.39
2022-12-12T17:36:01.066Z,0.41
2022-12-12T17:38:30.263Z,0.34
2022-12-12T17:40:59.996Z,0.38
2022-12-12T17:43:27.777Z,0.33
2022-12-12T17:45:59.831Z,0.35
2022-12-12T17:48:29.321Z,0.33
2022-12-12T17:50:59.158Z,0.32
2022-12-12T17:53:26.985Z,0.30
2022-12-12T17:56:01.770Z,0.29
2022-12-12T17:58:38.593Z,0.27
2022-12-12T18:01:12.902Z,0.29
2022-12-12T18:03:40.729Z,0.21
2022-12-12T18:06:09.067Z,0.26
2022-12-12T18:08:36.880Z,0.24
2022-12-12T18:11:07.625Z,0.24
2022-12-12T18:13:38.736Z,0.13
2022-12-12T18:16:07.732Z,0.20
2022-12-12T18:18:35.576Z,0.16
2022-12-12T18:21:04.835Z,0.18
2022-12-12T18:23:32.645Z,0.18
2022-12-12T18:26:04.819Z,0.18
2022-12-12T18:28:32.612Z,0.15
2022-12-12T18:31:01.783Z,0.15
2022-12-12T18:33:29.517Z,0.05
2022-12-12T18:36:02.665Z,0.10
2022-12-12T18:38:30.774Z,0.07
2022-12-12T18:40:58.476Z,0.05
2022-12-12T18:43:27.765Z,0.04
2022-12-12T18:45:55.991Z,0.01
2022-12-12T18:48:25.153Z,-0.02
2022-12-12T18:50:52.885Z,-0.04
2022-12-12T18:53:20.828Z,-0.03
2022-12-12T18:55:48.595Z,-0.04
2022-12-12T18:58:16.261Z,-0.03
2022-12-12T19:00:43.895Z,-0.04
2022-12-12T19:03:11.553Z,-0.04
2022-12-12T19:05:43.540Z,-0.03
2022-12-12T19:08:11.986Z,-0.05
2022-12-12T19:10:40.830Z,-0.07
2022-12-12T19:13:08.765Z,-0.07
2022-12-12T19:15:36.553Z,-0.08
2022-12-12T19:18:04.395Z,-0.10
2022-12-12T19:20:32.102Z,-0.13
2022-12-12T19:23:01.229Z,-0.09
2022-12-12T19:25:28.980Z,-0.12
2022-12-12T19:28:32.989Z,-0.15
2022-12-12T19:36:16.392Z,-0.22
2022-12-12T19:39:32.463Z,-0.28
2022-12-12T19:45:04.604Z,-0.32
2022-12-12T19:47:35.925Z,-0.42
2022-12-12T19:50:03.794Z,-0.29
2022-12-12T19:52:31.686Z,-0.31
2022-12-12T19:54:59.975Z,-0.41
2022-12-12T19:57:29.776Z,-0.38
2022-12-12T19:59:57.947Z,-0.42
2022-12-12T20:02:26.067Z,-0.38
2022-12-12T20:04:57.200Z,-0.46
2022-12-12T20:07:25.432Z,-0.40
2022-12-12T20:09:56.178Z,-0.40
